sensor_id;sensor_type;location;lat;lon;timestamp;P1;durP1;ratioP1;P2;durP2;ratioP2
14381;SDS011;7275;50.328;8.720;2023-07-29T00:00:52;3.90;;;3.60;;
14381;SDS011;7275;50.328;8.720;2023-07-29T00:03:21;4.30;;;3.90;;
14381;SDS011;7275;50.328;8.720;2023-07-29T00:05:48;4.30;;;3.90;;
14381;SDS011;7275;50.328;8.720;2023-07-29T00:08:16;4.53;;;3.97;;
14381;SDS011;7275;50.328;8.720;2023-07-29T00:10:44;4.53;;;4.13;;
14381;SDS011;7275;50.328;8.720;2023-07-29T00:13:11;4.43;;;4.03;;
14381;SDS011;7275;50.328;8.720;2023-07-29T00:15:39;4.67;;;4.27;;
14381;SDS011;7275;50.328;8.720;2023-07-29T00:18:06;4.90;;;4.40;;
14381;SDS011;7275;50.328;8.720;2023-07-29T00:20:35;4.93;;;4.23;;
14381;SDS011;7275;50.328;8.720;2023-07-29T00:23:03;4.27;;;3.93;;
14381;SDS011;7275;50.328;8.720;2023-07-29T00:25:30;3.97;;;3.67;;
14381;SDS011;7275;50.328;8.720;2023-07-29T00:27:58;3.83;;;3.50;;
14381;SDS011;7275;50.328;8.720;2023-07-29T00:30:26;4.60;;;4.10;;
14381;SDS011;7275;50.328;8.720;2023-07-29T00:32:54;4.80;;;4.40;;
14381;SDS011;7275;50.328;8.720;2023-07-29T00:35:21;5.17;;;4.77;;
14381;SDS011;7275;50.328;8.720;2023-07-29T00:37:50;4.73;;;4.40;;
14381;SDS011;7275;50.328;8.720;2023-07-29T00:40:19;5.00;;;4.60;;
14381;SDS011;7275;50.328;8.720;2023-07-29T00:42:48;5.30;;;4.80;;
14381;SDS011;7275;50.328;8.720;2023-07-29T00:45:16;6.00;;;5.40;;
14381;SDS011;7275;50.328;8.720;2023-07-29T00:47:44;5.83;;;5.33;;
14381;SDS011;7275;50.328;8.720;2023-07-29T00:50:13;7.27;;;6.57;;
14381;SDS011;7275;50.328;8.720;2023-07-29T00:52:42;7.33;;;6.73;;
14381;SDS011;7275;50.328;8.720;2023-07-29T00:55:11;7.80;;;7.20;;
14381;SDS011;7275;50.328;8.720;2023-07-29T00:57:39;7.60;;;7.00;;
14381;SDS011;7275;50.328;8.720;2023-07-29T01:00:07;7.90;;;7.30;;
14381;SDS011;7275;50.328;8.720;2023-07-29T01:02:36;8.83;;;8.00;;
14381;SDS011;7275;50.328;8.720;2023-07-29T01:05:05;8.47;;;7.77;;
14381;SDS011;7275;50.328;8.720;2023-07-29T01:07:35;8.83;;;8.13;;
14381;SDS011;7275;50.328;8.720;2023-07-29T01:10:15;8.70;;;7.80;;
14381;SDS011;7275;50.328;8.720;2023-07-29T01:12:51;9.90;;;8.90;;
14381;SDS011;7275;50.328;8.720;2023-07-29T01:15:26;9.30;;;8.57;;
14381;SDS011;7275;50.328;8.720;2023-07-29T01:18:02;9.27;;;8.57;;
14381;SDS011;7275;50.328;8.720;2023-07-29T01:20:37;10.00;;;8.97;;
14381;SDS011;7275;50.328;8.720;2023-07-29T01:23:07;9.83;;;9.03;;
14381;SDS011;7275;50.328;8.720;2023-07-29T01:25:36;10.80;;;9.83;;
14381;SDS011;7275;50.328;8.720;2023-07-29T01:28:04;11.83;;;10.83;;
14381;SDS011;7275;50.328;8.720;2023-07-29T01:30:33;12.57;;;11.43;;
14381;SDS011;7275;50.328;8.720;2023-07-29T01:33:09;12.30;;;11.23;;
14381;SDS011;7275;50.328;8.720;2023-07-29T01:35:42;10.93;;;9.97;;
14381;SDS011;7275;50.328;8.720;2023-07-29T01:38:13;10.50;;;9.60;;
14381;SDS011;7275;50.328;8.720;2023-07-29T01:40:45;11.27;;;10.27;;
14381;SDS011;7275;50.328;8.720;2023-07-29T01:43:14;10.93;;;10.03;;
14381;SDS011;7275;50.328;8.720;2023-07-29T01:45:45;12.13;;;11.13;;
14381;SDS011;7275;50.328;8.720;2023-07-29T01:48:13;12.33;;;11.20;;
14381;SDS011;7275;50.328;8.720;2023-07-29T01:50:40;11.73;;;10.63;;
14381;SDS011;7275;50.328;8.720;2023-07-29T01:53:08;11.60;;;10.60;;
14381;SDS011;7275;50.328;8.720;2023-07-29T01:55:35;10.97;;;9.97;;
14381;SDS011;7275;50.328;8.720;2023-07-29T01:58:04;10.53;;;9.60;;
14381;SDS011;7275;50.328;8.720;2023-07-29T02:00:32;10.20;;;8.90;;
14381;SDS011;7275;50.328;8.720;2023-07-29T02:03:00;10.13;;;9.33;;
14381;SDS011;7275;50.328;8.720;2023-07-29T02:05:27;10.67;;;9.33;;
14381;SDS011;7275;50.328;8.720;2023-07-29T02:07:55;10.67;;;9.77;;
14381;SDS011;7275;50.328;8.720;2023-07-29T02:10:23;11.27;;;10.27;;
14381;SDS011;7275;50.328;8.720;2023-07-29T02:12:51;12.10;;;11.00;;
14381;SDS011;7275;50.328;8.720;2023-07-29T02:15:20;11.90;;;10.90;;
14381;SDS011;7275;50.328;8.720;2023-07-29T02:17:49;12.10;;;11.10;;
14381;SDS011;7275;50.328;8.720;2023-07-29T02:20:17;13.23;;;12.03;;
14381;SDS011;7275;50.328;8.720;2023-07-29T02:22:45;11.60;;;10.60;;
14381;SDS011;7275;50.328;8.720;2023-07-29T02:25:14;12.33;;;11.33;;
14381;SDS011;7275;50.328;8.720;2023-07-29T02:27:42;12.17;;;10.87;;
14381;SDS011;7275;50.328;8.720;2023-07-29T02:30:10;12.57;;;11.43;;
14381;SDS011;7275;50.328;8.720;2023-07-29T02:32:40;13.43;;;12.23;;
14381;SDS011;7275;50.328;8.720;2023-07-29T02:35:08;13.27;;;12.17;;
14381;SDS011;7275;50.328;8.720;2023-07-29T02:37:36;13.17;;;11.97;;
14381;SDS011;7275;50.328;8.720;2023-07-29T02:40:04;12.37;;;11.27;;
14381;SDS011;7275;50.328;8.720;2023-07-29T02:42:32;12.97;;;11.87;;
14381;SDS011;7275;50.328;8.720;2023-07-29T02:45:00;13.43;;;12.23;;
14381;SDS011;7275;50.328;8.720;2023-07-29T02:47:27;13.23;;;12.03;;
14381;SDS011;7275;50.328;8.720;2023-07-29T02:49:57;14.13;;;12.73;;
14381;SDS011;7275;50.328;8.720;2023-07-29T02:52:24;12.90;;;11.70;;
14381;SDS011;7275;50.328;8.720;2023-07-29T02:54:52;14.50;;;13.30;;
14381;SDS011;7275;50.328;8.720;2023-07-29T02:57:19;14.10;;;12.57;;
14381;SDS011;7275;50.328;8.720;2023-07-29T02:59:47;14.20;;;12.90;;
14381;SDS011;7275;50.328;8.720;2023-07-29T03:02:14;15.97;;;14.47;;
14381;SDS011;7275;50.328;8.720;2023-07-29T03:04:43;18.83;;;17.13;;
14381;SDS011;7275;50.328;8.720;2023-07-29T03:07:12;19.60;;;17.80;;
14381;SDS011;7275;50.328;8.720;2023-07-29T03:09:40;19.87;;;17.97;;
14381;SDS011;7275;50.328;8.720;2023-07-29T03:12:08;20.10;;;18.20;;
14381;SDS011;7275;50.328;8.720;2023-07-29T03:14:36;19.60;;;17.77;;
14381;SDS011;7275;50.328;8.720;2023-07-29T03:17:03;20.03;;;18.23;;
14381;SDS011;7275;50.328;8.720;2023-07-29T03:19:32;19.63;;;17.90;;
14381;SDS011;7275;50.328;8.720;2023-07-29T03:21:59;18.33;;;16.63;;
14381;SDS011;7275;50.328;8.720;2023-07-29T03:24:28;15.17;;;13.87;;
14381;SDS011;7275;50.328;8.720;2023-07-29T03:26:56;13.57;;;12.37;;
14381;SDS011;7275;50.328;8.720;2023-07-29T03:29:23;12.27;;;11.07;;
14381;SDS011;7275;50.328;8.720;2023-07-29T03:31:51;10.90;;;10.00;;
14381;SDS011;7275;50.328;8.720;2023-07-29T03:34:18;11.17;;;10.20;;
14381;SDS011;7275;50.328;8.720;2023-07-29T03:36:46;10.40;;;9.57;;
14381;SDS011;7275;50.328;8.720;2023-07-29T03:39:14;10.70;;;9.80;;
14381;SDS011;7275;50.328;8.720;2023-07-29T03:41:44;10.40;;;9.47;;
14381;SDS011;7275;50.328;8.720;2023-07-29T03:44:11;10.50;;;9.60;;
14381;SDS011;7275;50.328;8.720;2023-07-29T03:46:39;11.00;;;10.10;;
14381;SDS011;7275;50.328;8.720;2023-07-29T03:49:07;10.50;;;9.60;;
14381;SDS011;7275;50.328;8.720;2023-07-29T03:51:34;11.00;;;10.00;;
14381;SDS011;7275;50.328;8.720;2023-07-29T03:54:02;10.23;;;9.23;;
14381;SDS011;7275;50.328;8.720;2023-07-29T03:56:30;9.60;;;8.80;;
14381;SDS011;7275;50.328;8.720;2023-07-29T03:59:03;8.90;;;8.20;;
14381;SDS011;7275;50.328;8.720;2023-07-29T04:01:31;7.80;;;7.20;;
14381;SDS011;7275;50.328;8.720;2023-07-29T04:03:58;8.17;;;7.50;;
14381;SDS011;7275;50.328;8.720;2023-07-29T04:06:26;8.20;;;7.43;;
14381;SDS011;7275;50.328;8.720;2023-07-29T04:08:54;8.63;;;7.83;;
14381;SDS011;7275;50.328;8.720;2023-07-29T04:11:22;8.50;;;7.67;;
14381;SDS011;7275;50.328;8.720;2023-07-29T04:13:50;7.80;;;7.10;;
14381;SDS011;7275;50.328;8.720;2023-07-29T04:16:19;6.70;;;6.10;;
14381;SDS011;7275;50.328;8.720;2023-07-29T04:18:47;6.53;;;6.03;;
14381;SDS011;7275;50.328;8.720;2023-07-29T04:21:14;7.00;;;6.40;;
14381;SDS011;7275;50.328;8.720;2023-07-29T04:23:42;7.17;;;6.57;;
14381;SDS011;7275;50.328;8.720;2023-07-29T04:26:09;7.03;;;6.43;;
14381;SDS011;7275;50.328;8.720;2023-07-29T04:28:37;7.10;;;6.40;;
14381;SDS011;7275;50.328;8.720;2023-07-29T04:31:05;7.50;;;6.80;;
14381;SDS011;7275;50.328;8.720;2023-07-29T04:33:34;9.50;;;7.63;;
14381;SDS011;7275;50.328;8.720;2023-07-29T04:36:02;8.43;;;7.53;;
14381;SDS011;7275;50.328;8.720;2023-07-29T04:38:31;7.53;;;6.93;;
14381;SDS011;7275;50.328;8.720;2023-07-29T04:41:00;6.73;;;5.80;;
14381;SDS011;7275;50.328;8.720;2023-07-29T04:43:30;6.27;;;5.77;;
14381;SDS011;7275;50.328;8.720;2023-07-29T04:45:58;6.63;;;6.03;;
14381;SDS011;7275;50.328;8.720;2023-07-29T04:48:26;5.70;;;5.20;;
14381;SDS011;7275;50.328;8.720;2023-07-29T04:50:55;6.23;;;5.73;;
14381;SDS011;7275;50.328;8.720;2023-07-29T04:53:22;6.17;;;5.67;;
14381;SDS011;7275;50.328;8.720;2023-07-29T04:55:50;6.40;;;5.80;;
14381;SDS011;7275;50.328;8.720;2023-07-29T04:58:17;6.43;;;5.93;;
14381;SDS011;7275;50.328;8.720;2023-07-29T05:00:46;6.00;;;5.60;;
14381;SDS011;7275;50.328;8.720;2023-07-29T05:03:13;7.57;;;6.53;;
14381;SDS011;7275;50.328;8.720;2023-07-29T05:05:41;6.73;;;6.23;;
14381;SDS011;7275;50.328;8.720;2023-07-29T05:08:10;8.27;;;6.97;;
14381;SDS011;7275;50.328;8.720;2023-07-29T05:10:37;7.43;;;6.77;;
14381;SDS011;7275;50.328;8.720;2023-07-29T05:13:05;7.17;;;6.57;;
14381;SDS011;7275;50.328;8.720;2023-07-29T05:15:32;7.07;;;6.43;;
14381;SDS011;7275;50.328;8.720;2023-07-29T05:18:00;7.57;;;6.10;;
14381;SDS011;7275;50.328;8.720;2023-07-29T05:20:28;7.30;;;6.60;;
14381;SDS011;7275;50.328;8.720;2023-07-29T05:22:55;7.00;;;6.40;;
14381;SDS011;7275;50.328;8.720;2023-07-29T05:25:24;7.40;;;6.67;;
14381;SDS011;7275;50.328;8.720;2023-07-29T05:27:52;7.57;;;6.97;;
14381;SDS011;7275;50.328;8.720;2023-07-29T05:30:19;7.97;;;7.27;;
14381;SDS011;7275;50.328;8.720;2023-07-29T05:32:47;7.90;;;7.20;;
14381;SDS011;7275;50.328;8.720;2023-07-29T05:35:14;8.53;;;7.73;;
14381;SDS011;7275;50.328;8.720;2023-07-29T05:37:42;7.23;;;6.60;;
14381;SDS011;7275;50.328;8.720;2023-07-29T05:40:10;6.17;;;5.67;;
14381;SDS011;7275;50.328;8.720;2023-07-29T05:42:39;6.23;;;5.73;;
14381;SDS011;7275;50.328;8.720;2023-07-29T05:45:07;5.63;;;5.23;;
14381;SDS011;7275;50.328;8.720;2023-07-29T05:47:35;8.27;;;5.70;;
14381;SDS011;7275;50.328;8.720;2023-07-29T05:50:03;5.77;;;5.37;;
14381;SDS011;7275;50.328;8.720;2023-07-29T05:52:32;5.27;;;4.87;;
14381;SDS011;7275;50.328;8.720;2023-07-29T05:55:00;5.80;;;5.17;;
14381;SDS011;7275;50.328;8.720;2023-07-29T05:57:28;4.97;;;4.57;;
14381;SDS011;7275;50.328;8.720;2023-07-29T05:59:56;5.40;;;5.00;;
14381;SDS011;7275;50.328;8.720;2023-07-29T06:02:24;9.33;;;5.40;;
14381;SDS011;7275;50.328;8.720;2023-07-29T06:04:52;5.97;;;5.47;;
14381;SDS011;7275;50.328;8.720;2023-07-29T06:07:19;5.27;;;4.80;;
14381;SDS011;7275;50.328;8.720;2023-07-29T06:09:47;5.03;;;4.63;;
14381;SDS011;7275;50.328;8.720;2023-07-29T06:12:15;5.13;;;4.73;;
14381;SDS011;7275;50.328;8.720;2023-07-29T06:14:42;5.57;;;5.10;;
14381;SDS011;7275;50.328;8.720;2023-07-29T06:17:11;5.43;;;4.73;;
14381;SDS011;7275;50.328;8.720;2023-07-29T06:19:39;5.03;;;4.63;;
14381;SDS011;7275;50.328;8.720;2023-07-29T06:22:07;4.87;;;4.47;;
14381;SDS011;7275;50.328;8.720;2023-07-29T06:24:35;5.60;;;4.87;;
14381;SDS011;7275;50.328;8.720;2023-07-29T06:27:02;4.97;;;4.57;;
14381;SDS011;7275;50.328;8.720;2023-07-29T06:29:30;5.93;;;4.70;;
14381;SDS011;7275;50.328;8.720;2023-07-29T06:31:58;4.80;;;4.40;;
14381;SDS011;7275;50.328;8.720;2023-07-29T06:34:27;5.00;;;4.50;;
14381;SDS011;7275;50.328;8.720;2023-07-29T06:36:54;5.00;;;4.47;;
14381;SDS011;7275;50.328;8.720;2023-07-29T06:39:22;4.53;;;4.17;;
14381;SDS011;7275;50.328;8.720;2023-07-29T06:41:49;4.47;;;4.10;;
14381;SDS011;7275;50.328;8.720;2023-07-29T06:44:17;4.83;;;4.43;;
14381;SDS011;7275;50.328;8.720;2023-07-29T06:46:45;4.73;;;4.30;;
14381;SDS011;7275;50.328;8.720;2023-07-29T06:49:12;5.63;;;5.10;;
14381;SDS011;7275;50.328;8.720;2023-07-29T06:51:41;7.37;;;6.77;;
14381;SDS011;7275;50.328;8.720;2023-07-29T06:54:09;8.90;;;8.10;;
14381;SDS011;7275;50.328;8.720;2023-07-29T06:56:37;8.80;;;8.00;;
14381;SDS011;7275;50.328;8.720;2023-07-29T06:59:04;10.87;;;9.93;;
14381;SDS011;7275;50.328;8.720;2023-07-29T07:01:32;12.00;;;10.80;;
14381;SDS011;7275;50.328;8.720;2023-07-29T07:04:00;11.37;;;10.20;;
14381;SDS011;7275;50.328;8.720;2023-07-29T07:06:28;10.23;;;9.33;;
14381;SDS011;7275;50.328;8.720;2023-07-29T07:08:57;9.03;;;8.30;;
14381;SDS011;7275;50.328;8.720;2023-07-29T07:11:25;9.00;;;8.10;;
14381;SDS011;7275;50.328;8.720;2023-07-29T07:13:52;8.83;;;8.13;;
14381;SDS011;7275;50.328;8.720;2023-07-29T07:16:20;6.93;;;6.33;;
14381;SDS011;7275;50.328;8.720;2023-07-29T07:18:48;7.17;;;6.57;;
14381;SDS011;7275;50.328;8.720;2023-07-29T07:21:15;7.17;;;6.47;;
14381;SDS011;7275;50.328;8.720;2023-07-29T07:23:43;6.73;;;6.03;;
14381;SDS011;7275;50.328;8.720;2023-07-29T07:26:12;5.77;;;5.30;;
14381;SDS011;7275;50.328;8.720;2023-07-29T07:28:39;5.70;;;5.17;;
14381;SDS011;7275;50.328;8.720;2023-07-29T07:31:07;6.00;;;5.60;;
14381;SDS011;7275;50.328;8.720;2023-07-29T07:33:34;5.90;;;5.50;;
14381;SDS011;7275;50.328;8.720;2023-07-29T07:36:02;6.20;;;5.60;;
14381;SDS011;7275;50.328;8.720;2023-07-29T07:38:30;5.50;;;5.10;;
14381;SDS011;7275;50.328;8.720;2023-07-29T07:40:58;5.67;;;5.10;;
14381;SDS011;7275;50.328;8.720;2023-07-29T07:43:27;5.70;;;5.30;;
14381;SDS011;7275;50.328;8.720;2023-07-29T07:45:58;6.53;;;5.83;;
14381;SDS011;7275;50.328;8.720;2023-07-29T07:48:26;8.10;;;5.53;;
14381;SDS011;7275;50.328;8.720;2023-07-29T07:50:54;6.43;;;5.93;;
14381;SDS011;7275;50.328;8.720;2023-07-29T07:53:22;5.63;;;5.13;;
14381;SDS011;7275;50.328;8.720;2023-07-29T07:55:51;5.90;;;5.40;;
14381;SDS011;7275;50.328;8.720;2023-07-29T07:58:19;5.40;;;4.90;;
14381;SDS011;7275;50.328;8.720;2023-07-29T08:00:48;4.90;;;4.47;;
14381;SDS011;7275;50.328;8.720;2023-07-29T08:03:17;5.40;;;4.90;;
14381;SDS011;7275;50.328;8.720;2023-07-29T08:05:45;5.43;;;4.23;;
14381;SDS011;7275;50.328;8.720;2023-07-29T08:08:12;4.90;;;4.37;;
14381;SDS011;7275;50.328;8.720;2023-07-29T08:10:40;4.07;;;3.67;;
14381;SDS011;7275;50.328;8.720;2023-07-29T08:13:07;3.88;;;3.58;;
14381;SDS011;7275;50.328;8.720;2023-07-29T08:15:35;3.40;;;3.10;;
14381;SDS011;7275;50.328;8.720;2023-07-29T08:18:04;3.30;;;2.72;;
14381;SDS011;7275;50.328;8.720;2023-07-29T08:20:32;2.90;;;2.67;;
14381;SDS011;7275;50.328;8.720;2023-07-29T08:23:00;2.30;;;2.20;;
14381;SDS011;7275;50.328;8.720;2023-07-29T08:25:28;3.38;;;2.35;;
14381;SDS011;7275;50.328;8.720;2023-07-29T08:27:56;2.30;;;2.20;;
14381;SDS011;7275;50.328;8.720;2023-07-29T08:30:24;2.97;;;2.30;;
14381;SDS011;7275;50.328;8.720;2023-07-29T08:32:52;2.28;;;2.10;;
14381;SDS011;7275;50.328;8.720;2023-07-29T08:35:21;2.40;;;2.20;;
14381;SDS011;7275;50.328;8.720;2023-07-29T08:37:48;2.05;;;1.95;;
14381;SDS011;7275;50.328;8.720;2023-07-29T08:40:16;2.45;;;2.00;;
14381;SDS011;7275;50.328;8.720;2023-07-29T08:42:44;2.15;;;1.95;;
14381;SDS011;7275;50.328;8.720;2023-07-29T08:45:14;2.00;;;1.80;;
14381;SDS011;7275;50.328;8.720;2023-07-29T08:47:44;2.00;;;1.80;;
14381;SDS011;7275;50.328;8.720;2023-07-29T08:50:12;1.90;;;1.80;;
14381;SDS011;7275;50.328;8.720;2023-07-29T08:52:42;1.80;;;1.70;;
14381;SDS011;7275;50.328;8.720;2023-07-29T08:55:11;2.25;;;2.00;;
14381;SDS011;7275;50.328;8.720;2023-07-29T08:57:38;2.28;;;1.75;;
14381;SDS011;7275;50.328;8.720;2023-07-29T09:00:07;2.20;;;2.00;;
14381;SDS011;7275;50.328;8.720;2023-07-29T09:02:36;2.58;;;1.88;;
14381;SDS011;7275;50.328;8.720;2023-07-29T09:05:04;2.75;;;2.28;;
14381;SDS011;7275;50.328;8.720;2023-07-29T09:07:32;2.60;;;2.05;;
14381;SDS011;7275;50.328;8.720;2023-07-29T09:10:02;2.15;;;1.60;;
14381;SDS011;7275;50.328;8.720;2023-07-29T09:12:30;1.80;;;1.70;;
14381;SDS011;7275;50.328;8.720;2023-07-29T09:14:58;4.93;;;1.80;;
14381;SDS011;7275;50.328;8.720;2023-07-29T09:17:26;2.08;;;1.88;;
14381;SDS011;7275;50.328;8.720;2023-07-29T09:19:58;1.70;;;1.60;;
14381;SDS011;7275;50.328;8.720;2023-07-29T09:22:26;4.53;;;1.65;;
14381;SDS011;7275;50.328;8.720;2023-07-29T09:24:54;2.13;;;1.80;;
14381;SDS011;7275;50.328;8.720;2023-07-29T09:27:25;2.10;;;1.85;;
14381;SDS011;7275;50.328;8.720;2023-07-29T09:29:55;2.08;;;1.63;;
14381;SDS011;7275;50.328;8.720;2023-07-29T09:32:23;3.22;;;1.75;;
14381;SDS011;7275;50.328;8.720;2023-07-29T09:34:52;1.60;;;1.50;;
14381;SDS011;7275;50.328;8.720;2023-07-29T09:37:20;3.20;;;1.75;;
14381;SDS011;7275;50.328;8.720;2023-07-29T09:39:49;2.47;;;1.80;;
14381;SDS011;7275;50.328;8.720;2023-07-29T09:42:17;2.15;;;1.50;;
14381;SDS011;7275;50.328;8.720;2023-07-29T09:44:48;1.92;;;1.63;;
14381;SDS011;7275;50.328;8.720;2023-07-29T09:47:20;1.63;;;1.52;;
14381;SDS011;7275;50.328;8.720;2023-07-29T09:49:48;3.47;;;1.80;;
14381;SDS011;7275;50.328;8.720;2023-07-29T09:52:16;3.17;;;1.58;;
14381;SDS011;7275;50.328;8.720;2023-07-29T09:54:44;1.60;;;1.50;;
14381;SDS011;7275;50.328;8.720;2023-07-29T09:57:13;2.58;;;1.60;;
14381;SDS011;7275;50.328;8.720;2023-07-29T09:59:43;2.17;;;1.60;;
14381;SDS011;7275;50.328;8.720;2023-07-29T10:02:13;1.95;;;1.50;;
14381;SDS011;7275;50.328;8.720;2023-07-29T10:04:43;1.50;;;1.40;;
14381;SDS011;7275;50.328;8.720;2023-07-29T10:07:12;1.60;;;1.40;;
14381;SDS011;7275;50.328;8.720;2023-07-29T10:09:41;1.85;;;1.50;;
14381;SDS011;7275;50.328;8.720;2023-07-29T10:12:12;1.40;;;1.30;;
14381;SDS011;7275;50.328;8.720;2023-07-29T10:14:44;1.38;;;1.27;;
14381;SDS011;7275;50.328;8.720;2023-07-29T10:17:16;1.30;;;1.20;;
14381;SDS011;7275;50.328;8.720;2023-07-29T10:19:43;1.73;;;1.42;;
14381;SDS011;7275;50.328;8.720;2023-07-29T10:22:11;1.67;;;1.30;;
14381;SDS011;7275;50.328;8.720;2023-07-29T10:24:43;1.40;;;1.30;;
14381;SDS011;7275;50.328;8.720;2023-07-29T10:27:12;1.50;;;1.40;;
14381;SDS011;7275;50.328;8.720;2023-07-29T10:29:43;1.73;;;1.20;;
14381;SDS011;7275;50.328;8.720;2023-07-29T10:32:12;1.50;;;1.40;;
14381;SDS011;7275;50.328;8.720;2023-07-29T10:34:42;1.50;;;1.33;;
14381;SDS011;7275;50.328;8.720;2023-07-29T10:37:10;4.22;;;1.52;;
14381;SDS011;7275;50.328;8.720;2023-07-29T10:39:38;1.30;;;1.20;;
14381;SDS011;7275;50.328;8.720;2023-07-29T10:42:07;1.67;;;1.20;;
14381;SDS011;7275;50.328;8.720;2023-07-29T10:44:47;1.55;;;1.30;;
14381;SDS011;7275;50.328;8.720;2023-07-29T10:47:22;2.08;;;1.30;;
14381;SDS011;7275;50.328;8.720;2023-07-29T10:49:53;2.15;;;1.40;;
14381;SDS011;7275;50.328;8.720;2023-07-29T10:52:37;2.13;;;1.27;;
14381;SDS011;7275;50.328;8.720;2023-07-29T10:55:24;2.10;;;1.50;;
14381;SDS011;7275;50.328;8.720;2023-07-29T10:58:07;2.33;;;1.40;;
14381;SDS011;7275;50.328;8.720;2023-07-29T11:00:43;1.42;;;1.30;;
14381;SDS011;7275;50.328;8.720;2023-07-29T11:03:11;2.60;;;1.58;;
14381;SDS011;7275;50.328;8.720;2023-07-29T11:05:42;2.38;;;1.55;;
14381;SDS011;7275;50.328;8.720;2023-07-29T11:08:22;3.63;;;1.42;;
14381;SDS011;7275;50.328;8.720;2023-07-29T11:11:04;2.47;;;1.50;;
14381;SDS011;7275;50.328;8.720;2023-07-29T11:13:33;4.28;;;1.70;;
14381;SDS011;7275;50.328;8.720;2023-07-29T11:16:02;2.67;;;1.80;;
14381;SDS011;7275;50.328;8.720;2023-07-29T11:18:31;2.75;;;1.50;;
14381;SDS011;7275;50.328;8.720;2023-07-29T11:21:02;2.65;;;1.50;;
14381;SDS011;7275;50.328;8.720;2023-07-29T11:23:31;2.25;;;1.30;;
14381;SDS011;7275;50.328;8.720;2023-07-29T11:26:00;2.70;;;1.45;;
14381;SDS011;7275;50.328;8.720;2023-07-29T11:28:28;2.15;;;1.58;;
14381;SDS011;7275;50.328;8.720;2023-07-29T11:30:57;1.50;;;1.40;;
14381;SDS011;7275;50.328;8.720;2023-07-29T11:33:25;1.60;;;1.50;;
14381;SDS011;7275;50.328;8.720;2023-07-29T11:35:54;1.77;;;1.40;;
14381;SDS011;7275;50.328;8.720;2023-07-29T11:38:23;2.55;;;1.40;;
14381;SDS011;7275;50.328;8.720;2023-07-29T11:40:55;1.83;;;1.50;;
14381;SDS011;7275;50.328;8.720;2023-07-29T11:43:24;7.53;;;1.63;;
14381;SDS011;7275;50.328;8.720;2023-07-29T11:45:52;2.03;;;1.30;;
14381;SDS011;7275;50.328;8.720;2023-07-29T11:48:27;2.72;;;1.35;;
14381;SDS011;7275;50.328;8.720;2023-07-29T11:50:55;2.05;;;1.40;;
14381;SDS011;7275;50.328;8.720;2023-07-29T11:53:26;1.88;;;1.50;;
14381;SDS011;7275;50.328;8.720;2023-07-29T11:55:56;2.50;;;1.50;;
14381;SDS011;7275;50.328;8.720;2023-07-29T11:58:24;1.60;;;1.42;;
14381;SDS011;7275;50.328;8.720;2023-07-29T12:00:53;1.38;;;1.27;;
14381;SDS011;7275;50.328;8.720;2023-07-29T12:03:20;2.08;;;1.42;;
14381;SDS011;7275;50.328;8.720;2023-07-29T12:05:49;1.45;;;1.35;;
14381;SDS011;7275;50.328;8.720;2023-07-29T12:08:17;1.30;;;1.20;;
14381;SDS011;7275;50.328;8.720;2023-07-29T12:10:46;1.40;;;1.30;;
14381;SDS011;7275;50.328;8.720;2023-07-29T12:13:14;1.50;;;1.40;;
14381;SDS011;7275;50.328;8.720;2023-07-29T12:15:42;2.08;;;1.40;;
14381;SDS011;7275;50.328;8.720;2023-07-29T12:18:09;2.80;;;1.70;;
14381;SDS011;7275;50.328;8.720;2023-07-29T12:20:39;3.63;;;1.73;;
14381;SDS011;7275;50.328;8.720;2023-07-29T12:23:07;1.90;;;1.45;;
14381;SDS011;7275;50.328;8.720;2023-07-29T12:25:34;2.60;;;1.52;;
14381;SDS011;7275;50.328;8.720;2023-07-29T12:28:04;2.78;;;1.75;;
14381;SDS011;7275;50.328;8.720;2023-07-29T12:30:33;4.57;;;1.52;;
14381;SDS011;7275;50.328;8.720;2023-07-29T12:33:01;1.77;;;1.33;;
14381;SDS011;7275;50.328;8.720;2023-07-29T12:35:37;3.08;;;1.48;;
14381;SDS011;7275;50.328;8.720;2023-07-29T12:38:05;2.13;;;1.60;;
14381;SDS011;7275;50.328;8.720;2023-07-29T12:40:37;1.55;;;1.45;;
14381;SDS011;7275;50.328;8.720;2023-07-29T12:43:06;2.17;;;1.40;;
14381;SDS011;7275;50.328;8.720;2023-07-29T12:45:35;2.78;;;1.38;;
14381;SDS011;7275;50.328;8.720;2023-07-29T12:48:05;2.97;;;1.60;;
14381;SDS011;7275;50.328;8.720;2023-07-29T12:50:33;1.90;;;1.70;;
14381;SDS011;7275;50.328;8.720;2023-07-29T12:53:01;1.85;;;1.50;;
14381;SDS011;7275;50.328;8.720;2023-07-29T12:55:28;3.40;;;1.58;;
14381;SDS011;7275;50.328;8.720;2023-07-29T12:57:56;5.28;;;1.70;;
14381;SDS011;7275;50.328;8.720;2023-07-29T13:00:25;3.83;;;1.40;;
14381;SDS011;7275;50.328;8.720;2023-07-29T13:02:53;3.58;;;1.40;;
14381;SDS011;7275;50.328;8.720;2023-07-29T13:05:21;2.85;;;1.60;;
14381;SDS011;7275;50.328;8.720;2023-07-29T13:07:49;2.38;;;1.38;;
14381;SDS011;7275;50.328;8.720;2023-07-29T13:10:17;2.35;;;1.30;;
14381;SDS011;7275;50.328;8.720;2023-07-29T13:12:44;2.00;;;1.50;;
14381;SDS011;7275;50.328;8.720;2023-07-29T13:15:12;2.33;;;1.30;;
14381;SDS011;7275;50.328;8.720;2023-07-29T13:17:41;1.40;;;1.30;;
14381;SDS011;7275;50.328;8.720;2023-07-29T13:20:08;1.17;;;1.10;;
14381;SDS011;7275;50.328;8.720;2023-07-29T13:22:36;2.10;;;1.40;;
14381;SDS011;7275;50.328;8.720;2023-07-29T13:25:04;3.20;;;1.52;;
14381;SDS011;7275;50.328;8.720;2023-07-29T13:27:33;1.50;;;1.30;;
14381;SDS011;7275;50.328;8.720;2023-07-29T13:30:00;1.50;;;1.40;;
14381;SDS011;7275;50.328;8.720;2023-07-29T13:32:28;1.55;;;1.30;;
14381;SDS011;7275;50.328;8.720;2023-07-29T13:34:57;1.55;;;1.45;;
14381;SDS011;7275;50.328;8.720;2023-07-29T13:37:24;1.83;;;1.40;;
14381;SDS011;7275;50.328;8.720;2023-07-29T13:39:52;1.50;;;1.38;;
14381;SDS011;7275;50.328;8.720;2023-07-29T13:42:20;2.88;;;1.30;;
14381;SDS011;7275;50.328;8.720;2023-07-29T13:44:47;1.77;;;1.20;;
14381;SDS011;7275;50.328;8.720;2023-07-29T13:47:15;1.30;;;1.20;;
14381;SDS011;7275;50.328;8.720;2023-07-29T13:49:42;1.40;;;1.30;;
14381;SDS011;7275;50.328;8.720;2023-07-29T13:52:11;1.50;;;1.40;;
14381;SDS011;7275;50.328;8.720;2023-07-29T13:54:39;1.40;;;1.30;;
14381;SDS011;7275;50.328;8.720;2023-07-29T13:57:07;1.50;;;1.40;;
14381;SDS011;7275;50.328;8.720;2023-07-29T13:59:36;1.67;;;1.20;;
14381;SDS011;7275;50.328;8.720;2023-07-29T14:02:05;1.30;;;1.20;;
14381;SDS011;7275;50.328;8.720;2023-07-29T14:04:32;1.92;;;1.35;;
14381;SDS011;7275;50.328;8.720;2023-07-29T14:07:00;1.50;;;1.40;;
14381;SDS011;7275;50.328;8.720;2023-07-29T14:09:30;1.63;;;1.35;;
14381;SDS011;7275;50.328;8.720;2023-07-29T14:11:58;1.40;;;1.30;;
14381;SDS011;7275;50.328;8.720;2023-07-29T14:14:26;1.30;;;1.20;;
14381;SDS011;7275;50.328;8.720;2023-07-29T14:16:53;1.40;;;1.30;;
14381;SDS011;7275;50.328;8.720;2023-07-29T14:19:22;1.48;;;1.38;;
14381;SDS011;7275;50.328;8.720;2023-07-29T14:21:50;1.70;;;1.60;;
14381;SDS011;7275;50.328;8.720;2023-07-29T14:24:18;1.50;;;1.40;;
14381;SDS011;7275;50.328;8.720;2023-07-29T14:26:47;1.50;;;1.40;;
14381;SDS011;7275;50.328;8.720;2023-07-29T14:29:14;1.52;;;1.40;;
14381;SDS011;7275;50.328;8.720;2023-07-29T14:31:42;1.33;;;1.23;;
14381;SDS011;7275;50.328;8.720;2023-07-29T14:34:10;1.30;;;1.20;;
14381;SDS011;7275;50.328;8.720;2023-07-29T14:36:37;1.73;;;1.20;;
14381;SDS011;7275;50.328;8.720;2023-07-29T14:39:05;1.50;;;1.40;;
14381;SDS011;7275;50.328;8.720;2023-07-29T14:41:33;2.03;;;1.15;;
14381;SDS011;7275;50.328;8.720;2023-07-29T14:44:02;1.73;;;1.20;;
14381;SDS011;7275;50.328;8.720;2023-07-29T14:46:29;1.20;;;1.10;;
14381;SDS011;7275;50.328;8.720;2023-07-29T14:48:57;1.48;;;1.20;;
14381;SDS011;7275;50.328;8.720;2023-07-29T14:51:25;1.77;;;1.23;;
14381;SDS011;7275;50.328;8.720;2023-07-29T14:53:53;2.75;;;1.30;;
14381;SDS011;7275;50.328;8.720;2023-07-29T14:56:20;1.95;;;1.55;;
14381;SDS011;7275;50.328;8.720;2023-07-29T14:58:57;1.80;;;1.20;;
14381;SDS011;7275;50.328;8.720;2023-07-29T15:01:26;3.78;;;1.30;;
14381;SDS011;7275;50.328;8.720;2023-07-29T15:03:53;1.20;;;1.10;;
14381;SDS011;7275;50.328;8.720;2023-07-29T15:06:21;1.70;;;1.35;;